Time;durP1;ratioP1;P1;durP2;ratioP2;P2;SDS_P1;SDS_P2;PMS_P1;PMS_P2;Temp;Humidity;BMP_temperature;BMP_pressure;BME280_temperature;BME280_humidity;BME280_pressure;Samples;Min_cycle;Max_cycle;Signal;HPM_P1;HPM_P2
2022/09/04 00:04:38;;;;;;;9.80;7.30;;;;;;;9.92;72.07;100331.34;213717;1276;141067;-63
2022/09/04 00:10:03;;;;;;;10.40;6.90;;;;;;;9.91;71.84;100337.91;212869;1277;140540;-62
2022/09/04 00:15:12;;;;;;;14.10;7.90;;;;;;;9.80;71.77;100334.50;212925;1276;142587;-63
2022/09/04 00:20:38;;;;;;;10.80;7.90;;;;;;;9.71;72.09;100345.70;213071;1277;141402;-64
2022/09/04 00:25:52;;;;;;;14.10;7.30;;;;;;;9.71;72.20;100352.27;212765;1276;141537;-64
2022/09/04 00:31:24;;;;;;;12.20;7.70;;;;;;;9.77;72.68;100352.19;213702;1276;141485;-63
2022/09/04 00:36:28;;;;;;;14.30;8.00;;;;;;;9.79;72.42;100353.42;212614;1277;141824;-64
2022/09/04 00:41:49;;;;;;;9.90;5.70;;;;;;;9.76;72.80;100349.35;213441;1276;230666;-63
2022/09/04 00:47:31;;;;;;;7.70;5.70;;;;;;;9.67;72.64;100341.27;214990;1276;140306;-64
2022/09/04 00:52:57;;;;;;;6.30;5.50;;;;;;;9.57;72.74;100351.71;215608;1276;140128;-65
2022/09/04 00:58:12;;;;;;;10.00;6.80;;;;;;;9.57;72.61;100351.64;213723;1278;152435;-63
2022/09/04 01:03:20;;;;;;;6.50;5.40;;;;;;;9.63;72.78;100350.54;215375;1277;142376;-64
2022/09/04 01:08:43;;;;;;;8.20;6.00;;;;;;;9.64;72.48;100353.27;215897;1276;141333;-63
2022/09/04 01:14:09;;;;;;;6.80;5.70;;;;;;;9.63;72.66;100351.48;214871;1276;139550;-64
2022/09/04 01:19:24;;;;;;;7.70;6.40;;;;;;;9.56;72.43;100351.72;214518;1276;140843;-63
2022/09/04 01:24:38;;;;;;;15.10;6.90;;;;;;;9.44;72.50;100351.83;213153;1276;139293;-65
2022/09/04 01:29:52;;;;;;;6.20;5.50;;;;;;;9.41;72.77;100352.88;213346;1277;141322;-63
2022/09/04 01:35:15;;;;;;;6.40;5.70;;;;;;;9.40;72.76;100355.38;214987;1275;141925;-64
2022/09/04 01:40:43;;;;;;;9.40;6.10;;;;;;;9.33;72.39;100362.98;213419;1276;141930;-63
2022/09/04 01:46:04;;;;;;;5.90;4.80;;;;;;;9.23;72.80;100362.71;213951;1276;140131;-63
2022/09/04 01:51:35;;;;;;;7.60;5.50;;;;;;;9.08;72.46;100364.09;213286;1276;234231;-62
2022/09/04 01:56:46;;;;;;;7.40;5.50;;;;;;;8.97;73.30;100366.28;213668;1277;140452;-63
2022/09/04 02:02:06;;;;;;;7.10;6.20;;;;;;;8.93;73.28;100367.52;213332;1276;141260;-64
2022/09/04 02:07:32;;;;;;;6.40;5.70;;;;;;;8.96;73.58;100364.23;213892;1276;140902;-62
2022/09/04 02:12:57;;;;;;;9.40;8.00;;;;;;;8.99;73.64;100368.23;212826;1276;140542;-64
2022/09/04 02:18:25;;;;;;;9.90;6.10;;;;;;;8.96;73.79;100364.56;213047;1276;140341;-63
2022/09/04 02:23:37;;;;;;;8.00;6.10;;;;;;;8.97;73.80;100372.09;213292;1277;140306;-62
2022/09/04 02:28:55;;;;;;;8.00;5.70;;;;;;;8.92;73.76;100374.59;212913;1277;140913;-61
2022/09/04 02:34:05;;;;;;;12.40;6.40;;;;;;;8.86;73.88;100374.05;213891;1276;140306;-61
2022/09/04 02:39:57;;;;;;;9.80;6.10;;;;;;;8.76;73.37;100375.73;213882;1276;140182;-63
2022/09/04 02:45:26;;;;;;;10.80;5.30;;;;;;;8.63;73.77;100378.37;214316;1276;140721;-61
2022/09/04 02:50:49;;;;;;;7.60;6.10;;;;;;;8.64;74.05;100379.75;215728;1276;140627;-64
2022/09/04 02:56:16;;;;;;;11.50;7.70;;;;;;;8.68;73.91;100381.19;215677;1276;140313;-64
2022/09/04 03:01:36;;;;;;;6.70;4.80;;;;;;;8.74;74.24;100384.86;215547;1277;142664;-64
2022/09/04 03:06:58;;;;;;;7.90;7.20;;;;;;;8.71;73.81;100382.90;215679;1277;140405;-65
2022/09/04 03:12:25;;;;;;;13.00;6.40;;;;;;;8.68;74.23;100382.33;215266;1276;139895;-62
2022/09/04 03:17:37;;;;;;;6.90;5.30;;;;;;;8.69;74.39;100381.23;215200;1277;140119;-62
2022/09/04 03:23:01;;;;;;;6.70;5.90;;;;;;;8.74;74.85;100370.84;214112;1277;140276;-63
2022/09/04 03:28:07;;;;;;;6.40;5.60;;;;;;;8.77;74.52;100374.31;214464;1277;140615;-63
2022/09/04 03:33:42;;;;;;;7.70;6.60;;;;;;;8.68;74.60;100373.41;213678;1277;141098;-64
2022/09/04 03:39:08;;;;;;;6.40;5.70;;;;;;;8.56;74.62;100382.55;213828;1276;139688;-64
2022/09/04 03:44:30;;;;;;;9.10;5.70;;;;;;;8.50;74.86;100389.52;213141;1277;140252;-63
2022/09/04 03:49:41;;;;;;;6.90;6.20;;;;;;;8.48;75.04;100388.58;213541;1276;151846;-62
2022/09/04 03:54:59;;;;;;;19.00;8.10;;;;;;;8.52;75.15;100398.30;213784;1277;140375;-62
2022/09/04 04:00:07;;;;;;;10.00;7.20;;;;;;;8.60;75.64;100403.14;213360;1277;140252;-62
2022/09/04 04:05:22;;;;;;;7.60;6.30;;;;;;;8.56;74.92;100397.63;213553;1277;140212;-62
2022/09/04 04:10:54;;;;;;;7.40;6.00;;;;;;;8.45;75.19;100401.85;214322;1277;139986;-63
2022/09/04 04:16:08;;;;;;;14.00;6.10;;;;;;;8.47;75.75;100404.60;214579;1277;139579;-62
2022/09/04 04:21:39;;;;;;;10.60;6.70;;;;;;;8.56;75.52;100404.10;214120;1276;140019;-61
2022/09/04 04:27:10;;;;;;;7.40;6.30;;;;;;;8.73;75.75;100399.46;213492;1277;140914;-61
2022/09/04 04:32:46;;;;;;;7.30;5.40;;;;;;;8.83;75.81;100406.62;215089;1277;141613;-65
2022/09/04 04:38:14;;;;;;;7.30;5.60;;;;;;;8.89;75.75;100409.85;215105;1277;140632;-64
2022/09/04 04:43:30;;;;;;;9.30;6.80;;;;;;;8.88;75.38;100414.48;214020;1277;139539;-64
2022/09/04 04:48:57;;;;;;;8.00;7.20;;;;;;;8.86;75.51;100416.30;215510;1276;139906;-65
2022/09/04 04:54:02;;;;;;;8.20;5.90;;;;;;;9.04;75.71;100422.40;215792;1275;140933;-65
2022/09/04 04:59:33;;;;;;;12.30;10.50;;;;;;;9.23;76.06;100423.70;214658;1276;1741029;-64
2022/09/04 05:04:44;;;;;;;;;;;;;;;9.46;76.24;100427.27;214881;1276;142052;-64
2022/09/04 05:10:10;;;;;;;8.20;6.60;;;;;;;9.64;76.37;100430.96;214583;1276;129308;-63
2022/09/04 05:15:19;;;;;;;7.50;6.60;;;;;;;9.88;76.66;100430.85;214476;1276;140743;-66
2022/09/04 05:20:37;;;;;;;8.90;6.70;;;;;;;10.11;76.89;100435.09;213342;1276;141294;-63
2022/09/04 05:26:09;;;;;;;10.00;7.00;;;;;;;10.31;77.02;100439.84;214617;1277;140870;-63
2022/09/04 05:31:35;;;;;;;8.60;7.80;;;;;;;10.56;77.27;100439.73;213625;1277;141906;-65
2022/09/04 05:36:46;;;;;;;10.60;8.00;;;;;;;10.82;77.39;100445.54;213142;1277;142215;-66
2022/09/04 05:41:52;;;;;;;11.70;8.70;;;;;;;11.08;77.57;100449.44;213445;1277;142279;-64
2022/09/04 05:47:31;;;;;;;8.10;7.30;;;;;;;11.36;77.67;100455.59;213072;1276;141543;-64
2022/09/04 05:52:40;;;;;;;13.60;7.70;;;;;;;11.63;77.83;100455.40;213479;1276;143493;-64
2022/09/04 05:57:56;;;;;;;11.10;7.60;;;;;;;11.84;78.23;100453.86;213009;1276;141592;-65
2022/09/04 06:03:00;;;;;;;11.80;7.90;;;;;;;12.09;78.16;100457.36;213161;1277;141254;-64
2022/09/04 06:08:32;;;;;;;8.80;7.50;;;;;;;12.32;78.23;100465.56;213560;1277;142434;-65
2022/09/04 06:14:05;;;;;;;10.10;6.50;;;;;;;12.57;78.30;100475.30;213318;1277;141781;-63
2022/09/04 06:19:35;;;;;;;11.10;7.90;;;;;;;12.80;78.14;100478.19;214296;1277;142059;-65
2022/09/04 06:24:56;;;;;;;10.70;7.60;;;;;;;13.03;78.00;100479.58;214633;1277;140923;-65
2022/09/04 06:30:06;;;;;;;9.50;5.60;;;;;;;13.28;77.90;100478.52;214729;1277;141444;-63
2022/09/04 06:35:19;;;;;;;7.40;4.50;;;;;;;13.53;77.91;100482.59;213009;1277;145465;-64
2022/09/04 06:40:33;;;;;;;6.80;4.90;;;;;;;13.82;77.30;100481.85;214303;1276;141501;-66
2022/09/04 06:45:47;;;;;;;6.20;4.50;;;;;;;14.17;77.00;100485.05;213756;1277;141650;-67
2022/09/04 06:51:05;;;;;;;8.90;3.60;;;;;;;14.52;76.26;100489.83;215312;1277;140480;-65
2022/09/04 06:56:28;;;;;;;4.10;3.70;;;;;;;14.87;75.60;100485.00;215465;1277;140551;-66
2022/09/04 07:01:40;;;;;;;4.20;3.50;;;;;;;15.19;74.99;100488.53;215285;1278;140340;-67
2022/09/04 07:07:12;;;;;;;3.40;3.10;;;;;;;15.53;74.33;100492.46;213948;1278;140501;-65
2022/09/04 07:12:52;;;;;;;2.60;2.40;;;;;;;16.26;73.08;100492.95;215339;1277;140026;-65
2022/09/04 07:17:58;;;;;;;1.50;1.40;;;;;;;17.35;71.84;100501.43;214321;1277;140022;-67
2022/09/04 07:23:21;;;;;;;1.60;1.50;;;;;;;18.77;70.46;100503.78;214420;1278;141344;-65
2022/09/04 07:29:01;;;;;;;1.60;1.50;;;;;;;20.11;68.78;100510.73;212652;1277;141650;-65
2022/09/04 07:34:16;;;;;;;1.50;1.40;;;;;;;21.05;66.48;100514.70;214317;1277;142916;-66
2022/09/04 07:39:28;;;;;;;1.80;1.50;;;;;;;21.66;64.21;100519.85;213147;1277;139931;-67
2022/09/04 07:44:49;;;;;;;1.90;1.90;;;;;;;22.19;62.64;100526.97;212978;1277;140420;-66
2022/09/04 07:50:00;;;;;;;1.60;1.50;;;;;;;22.41;60.63;100535.28;212868;1277;141812;-65
2022/09/04 07:55:25;;;;;;;5.30;1.50;;;;;;;22.53;59.33;100534.20;212576;1277;140097;-64
2022/09/04 08:00:38;;;;;;;2.90;2.10;;;;;;;22.64;58.50;100538.16;213632;1277;139984;-65
2022/09/04 08:05:57;;;;;;;3.20;2.00;;;;;;;22.80;57.69;100542.71;213286;1276;140404;-65
2022/09/04 08:11:58;;;;;;;3.50;2.80;;;;;;;22.66;56.18;100541.23;213240;1276;140516;-63
2022/09/04 08:17:23;;;;;;;2.30;2.10;;;;;;;22.71;55.67;100546.53;212920;1281;139820;-66
2022/09/04 08:22:51;;;;;;;2.00;1.90;;;;;;;22.84;54.87;100549.95;213801;1276;140397;-66
2022/09/04 08:28:26;;;;;;;2.90;1.90;;;;;;;22.89;54.13;100555.05;214474;1276;139990;-65
2022/09/04 08:33:44;;;;;;;2.80;2.30;;;;;;;22.86;53.88;100556.67;214758;1276;140700;-67
2022/09/04 08:39:06;;;;;;;2.80;2.60;;;;;;;22.98;53.13;100555.91;213420;1277;140508;-66
2022/09/04 08:44:46;;;;;;;3.30;3.10;;;;;;;22.90;52.60;100556.28;213361;1276;141807;-64
2022/09/04 08:50:33;;;;;;;3.50;2.90;;;;;;;23.04;52.19;100559.94;215601;1276;140265;-65
2022/09/04 08:56:05;;;;;;;3.20;2.50;;;;;;;23.12;51.56;100555.20;215337;1277;140133;-67
2022/09/04 09:01:30;;;;;;;4.20;1.80;;;;;;;23.26;51.07;100556.08;215177;1277;139824;-65
2022/09/04 09:07:05;;;;;;;3.00;2.70;;;;;;;23.30;50.62;100559.56;214169;1276;140096;-66
2022/09/04 09:12:29;;;;;;;3.20;2.60;;;;;;;23.26;50.39;100565.77;214526;1276;140074;-66
2022/09/04 09:18:20;;;;;;;2.70;2.30;;;;;;;23.44;49.87;100566.81;213471;1277;140222;-66
2022/09/04 09:23:44;;;;;;;3.60;2.70;;;;;;;23.32;49.20;100572.42;213959;1276;140994;-68
2022/09/04 09:29:05;;;;;;;3.00;2.50;;;;;;;23.30;48.72;100582.61;214357;1276;142900;-71
2022/09/04 09:34:22;;;;;;;2.40;2.20;;;;;;;23.36;48.44;100574.95;213806;1276;140472;-67
2022/09/04 09:39:33;;;;;;;4.70;2.20;;;;;;;23.44;48.07;100572.16;212834;1276;141460;-66
2022/09/04 09:45:07;;;;;;;3.60;2.70;;;;;;;23.53;48.17;100560.34;213231;1276;140471;-69
2022/09/04 09:50:48;;;;;;;4.50;2.30;;;;;;;23.72;48.06;100562.94;213089;1276;140330;-67
2022/09/04 09:56:00;;;;;;;5.40;2.20;;;;;;;23.76;47.35;100563.79;213208;1276;141317;-67
2022/09/04 10:01:33;;;;;;;21.60;4.00;;;;;;;23.90;47.26;100567.10;213102;1276;140619;-67
2022/09/04 10:07:20;;;;;;;1.90;1.60;;;;;;;23.98;46.29;100569.66;212716;1277;139990;-71
2022/09/04 10:12:42;;;;;;;1.60;1.50;;;;;;;24.12;46.30;100566.33;213960;1276;140597;-67
2022/09/04 10:17:53;;;;;;;2.20;2.10;;;;;;;24.19;45.67;100560.97;214020;1276;140755;-68
2022/09/04 10:23:34;;;;;;;5.40;2.60;;;;;;;24.32;45.46;100563.52;213343;1276;139865;-70
2022/09/04 10:28:52;;;;;;;12.50;2.40;;;;;;;24.41;44.96;100565.95;213133;1276;140412;-66
2022/09/04 10:34:04;;;;;;;2.10;1.90;;;;;;;24.55;45.00;100574.27;213735;1276;140536;-67
2022/09/04 10:45:25;;;;;;;6.50;2.00;;;;;;;24.67;44.55;100569.38;215579;1276;143320;-68
2022/09/04 10:50:56;;;;;;;2.10;2.00;;;;;;;24.08;43.63;100573.20;215291;1277;140870;-70
2022/09/04 10:56:04;;;;;;;8.70;2.20;;;;;;;23.53;43.67;100575.37;215375;1276;141552;-71
2022/09/04 11:01:32;;;;;;;2.60;2.40;;;;;;;23.53;44.02;100576.96;214031;1277;140800;-69
2022/09/04 11:07:03;;;;;;;6.70;2.40;;;;;;;23.30;43.66;100582.62;214686;1277;139713;-67
2022/09/04 11:12:11;;;;;;;1.80;1.60;;;;;;;23.02;44.18;100584.73;212773;1277;144001;-66
2022/09/04 11:18:01;;;;;;;2.90;2.00;;;;;;;23.09;44.77;100579.17;213223;1277;139545;-64
2022/09/04 11:23:33;;;;;;;2.10;1.90;;;;;;;23.28;44.63;100577.98;213750;1281;142210;-65
2022/09/04 11:28:58;;;;;;;2.20;2.00;;;;;;;23.28;44.44;100576.95;213553;1276;141066;-65
2022/09/04 11:34:32;;;;;;;5.50;2.50;;;;;;;22.89;44.41;100579.27;213477;1276;140588;-62
2022/09/04 11:40:04;;;;;;;2.60;2.40;;;;;;;22.92;44.66;100577.70;212855;1276;139492;-64
2022/09/04 11:45:31;;;;;;;13.50;2.50;;;;;;;23.23;44.70;100575.06;213369;1277;140154;-64
2022/09/04 11:51:03;;;;;;;2.80;2.60;;;;;;;23.61;44.70;100571.14;212907;1277;142243;-64
2022/09/04 11:56:38;;;;;;;3.30;2.50;;;;;;;23.94;44.17;100566.26;214616;1276;140664;-67
2022/09/04 12:02:26;;;;;;;2.00;1.80;;;;;;;24.24;43.89;100556.76;212636;1276;140271;-67
2022/09/04 12:07:46;;;;;;;1.70;1.60;;;;;;;24.59;43.89;100560.06;214180;1276;139762;-67
2022/09/04 12:13:04;;;;;;;2.50;2.30;;;;;;;24.84;42.90;100557.40;213579;1276;140361;-66
2022/09/04 12:18:32;;;;;;;2.20;1.70;;;;;;;24.94;42.21;100553.41;213042;1277;151419;-66
2022/09/04 12:23:53;;;;;;;2.50;2.30;;;;;;;24.79;41.58;100547.27;213626;1277;140997;-68
2022/09/04 12:29:18;;;;;;;1.80;1.70;;;;;;;24.44;41.39;100542.91;213009;1279;140860;-68
2022/09/04 12:34:42;;;;;;;2.00;1.90;;;;;;;24.37;41.64;100545.70;213885;1276;141839;-68
2022/09/04 12:40:03;;;;;;;18.10;3.20;;;;;;;24.57;41.89;100545.52;214544;1278;140896;-66
2022/09/04 12:45:15;;;;;;;2.10;2.00;;;;;;;24.69;41.55;100548.45;215354;1276;142051;-66
2022/09/04 12:50:32;;;;;;;2.10;2.00;;;;;;;24.64;41.28;100550.36;215546;1276;140519;-67
2022/09/04 12:56:10;;;;;;;1.80;1.70;;;;;;;24.12;41.26;100550.30;215505;1278;140544;-68
2022/09/04 13:01:38;;;;;;;2.10;2.00;;;;;;;23.58;41.63;100549.69;214957;1276;161929;-66
2022/09/04 13:07:02;;;;;;;2.80;2.00;;;;;;;23.19;42.05;100553.98;212832;1278;140833;-66
2022/09/04 13:12:52;;;;;;;2.90;1.90;;;;;;;23.25;42.36;100563.73;213207;1277;141647;-66
2022/09/04 13:18:33;;;;;;;2.60;1.90;;;;;;;23.00;42.27;100566.48;212424;1277;141301;-65
2022/09/04 13:23:51;;;;;;;1.40;1.40;;;;;;;22.91;42.72;100571.64;213039;1277;141203;-65
2022/09/04 13:29:32;;;;;;;5.00;2.00;;;;;;;23.19;42.81;100574.73;212934;1277;141582;-66
2022/09/04 13:35:00;;;;;;;2.20;1.50;;;;;;;23.50;42.74;100567.75;213220;1276;140835;-66
2022/09/04 13:40:28;;;;;;;1.90;1.80;;;;;;;23.74;42.34;100572.98;212640;1277;141240;-66
2022/09/04 13:45:39;;;;;;;3.40;1.90;;;;;;;23.78;41.85;100574.70;212683;1278;141734;-66
2022/09/04 13:51:12;;;;;;;1.70;1.60;;;;;;;23.76;41.84;100567.92;212799;1276;141682;-66
2022/09/04 13:56:23;;;;;;;1.40;1.30;;;;;;;23.61;41.90;100567.50;213583;1276;141085;-66
2022/09/04 14:01:28;;;;;;;1.30;1.20;;;;;;;23.43;42.15;100568.36;212690;1277;140682;-65
2022/09/04 14:06:37;;;;;;;2.10;1.90;;;;;;;23.38;41.96;100569.16;213445;1276;142574;-65
2022/09/04 14:12:10;;;;;;;1.60;1.50;;;;;;;23.22;42.14;100575.79;213865;1276;140510;-65
2022/09/04 14:17:12;;;;;;;6.50;2.20;;;;;;;23.13;42.04;100570.35;213446;1276;140930;-64
2022/09/04 14:22:44;;;;;;;2.50;1.50;;;;;;;22.95;42.40;100564.73;214169;1277;141132;-65
2022/09/04 14:27:52;;;;;;;4.70;1.20;;;;;;;22.87;42.27;100566.27;212792;1278;141158;-64
2022/09/04 14:33:19;;;;;;;3.10;1.90;;;;;;;22.78;42.05;100563.79;214570;1276;141627;-66
2022/09/04 14:38:43;;;;;;;1.80;1.30;;;;;;;22.77;42.35;100563.52;215629;1276;139367;-66
2022/09/04 14:44:08;;;;;;;1.80;1.70;;;;;;;22.72;42.50;100566.20;215385;1277;141469;-67
2022/09/04 14:49:16;;;;;;;1.60;1.50;;;;;;;22.37;42.49;100565.23;215357;1276;139817;-66
2022/09/04 14:54:27;;;;;;;1.40;1.30;;;;;;;22.13;42.81;100570.50;214985;1277;140770;-66
2022/09/04 14:59:41;;;;;;;2.40;2.20;;;;;;;22.04;43.05;100569.08;214516;1276;140320;-65
2022/09/04 15:05:20;;;;;;;2.40;2.20;;;;;;;21.90;43.39;100568.10;214272;1278;140076;-65
2022/09/04 15:10:52;;;;;;;2.10;1.90;;;;;;;21.65;43.65;100571.95;213781;1276;140476;-65
2022/09/04 15:16:14;;;;;;;1.50;1.40;;;;;;;21.51;44.11;100578.33;213359;1277;139897;-65
2022/09/04 15:21:41;;;;;;;2.10;1.70;;;;;;;21.49;44.41;100591.43;213299;1276;140620;-65
2022/09/04 15:26:50;;;;;;;2.30;1.90;;;;;;;21.45;44.00;100590.93;213825;1277;139617;-65
2022/09/04 15:32:02;;;;;;;3.90;2.70;;;;;;;21.41;44.27;100591.35;213375;1278;141070;-65
2022/09/04 15:37:27;;;;;;;7.90;1.90;;;;;;;21.44;44.27;100588.38;212925;1278;140387;-66
2022/09/04 15:42:51;;;;;;;5.80;1.60;;;;;;;21.47;44.13;100583.58;213479;1276;140024;-65
2022/09/04 15:48:24;;;;;;;2.30;2.10;;;;;;;21.45;44.19;100583.39;213156;1278;139652;-66
2022/09/04 15:53:33;;;;;;;3.10;1.60;;;;;;;21.31;44.76;100579.20;213260;1278;140055;-67
2022/09/04 15:59:03;;;;;;;4.20;2.00;;;;;;;21.16;44.96;100576.25;214317;1276;140691;-66
2022/09/04 16:04:41;;;;;;;4.10;2.00;;;;;;;21.05;45.65;100584.16;212983;1276;140305;-65
2022/09/04 16:10:02;;;;;;;2.10;1.90;;;;;;;20.93;46.11;100585.82;214297;1276;139767;-66
2022/09/04 16:15:09;;;;;;;4.60;2.30;;;;;;;20.83;46.75;100589.30;213270;1276;139656;-66
2022/09/04 16:20:45;;;;;;;79.60;8.00;;;;;;;20.74;47.75;100597.89;213357;1278;140271;-68
2022/09/04 16:25:50;;;;;;;17.10;4.10;;;;;;;20.62;48.08;100602.39;214554;1278;140264;-66
2022/09/04 16:31:00;;;;;;;6.30;2.50;;;;;;;20.46;48.04;100605.31;215138;1278;140935;-65
2022/09/04 16:36:15;;;;;;;13.10;5.00;;;;;;;20.28;48.28;100610.66;215435;1277;140140;-64
2022/09/04 16:41:28;;;;;;;8.50;4.20;;;;;;;20.10;48.99;100611.66;215373;1277;140875;-63
2022/09/04 16:46:34;;;;;;;17.10;4.20;;;;;;;19.90;49.97;100609.77;214252;1278;141427;-63
2022/09/04 16:51:47;;;;;;;;;;;;;;;19.71;50.67;100621.84;214927;1278;141235;-63
2022/09/04 16:56:57;;;;;;;4.30;3.90;;;;;;;19.50;51.24;100623.75;215375;1278;126349;-64
2022/09/04 17:02:20;;;;;;;10.00;3.90;;;;;;;19.30;51.83;100629.52;211993;1278;1778515;-66
2022/09/04 17:07:32;;;;;;;3.80;3.30;;;;;;;19.08;52.50;100637.24;214923;1276;140271;-66
2022/09/04 17:12:39;;;;;;;8.20;3.40;;;;;;;18.85;53.17;100638.68;213322;1276;140968;-65
2022/09/04 17:17:46;;;;;;;3.70;2.80;;;;;;;18.60;54.01;100642.22;214011;1277;141169;-66
2022/09/04 17:23:09;;;;;;;4.50;3.20;;;;;;;18.38;54.73;100643.48;213052;1276;141653;-66
2022/09/04 17:28:40;;;;;;;4.90;2.90;;;;;;;18.14;55.52;100645.47;212777;1277;141956;-67
2022/09/04 17:34:18;;;;;;;4.60;2.80;;;;;;;17.88;56.12;100639.89;212493;1276;162948;-64
2022/09/04 17:39:50;;;;;;;5.70;3.30;;;;;;;17.63;56.72;100646.50;212597;1276;142568;-65
2022/09/04 17:45:32;;;;;;;5.80;4.00;;;;;;;17.30;57.14;100654.52;213909;1277;141426;-65
2022/09/04 17:50:35;;;;;;;6.20;3.10;;;;;;;16.96;57.93;100656.11;212717;1277;141079;-66
2022/09/04 17:55:44;;;;;;;7.40;3.80;;;;;;;16.63;58.30;100666.35;212899;1277;141417;-66
2022/09/04 18:01:07;;;;;;;4.10;3.80;;;;;;;16.33;58.80;100674.26;213479;1277;140957;-64
2022/09/04 18:06:23;;;;;;;8.70;3.90;;;;;;;16.14;59.23;100680.36;212965;1278;141646;-65
2022/09/04 18:11:32;;;;;;;4.50;4.10;;;;;;;16.01;59.61;100688.98;213877;1278;143091;-69
2022/09/04 18:16:39;;;;;;;6.70;4.30;;;;;;;15.84;59.78;100693.86;212922;1277;141738;-65
2022/09/04 18:22:28;;;;;;;7.40;4.00;;;;;;;15.54;60.38;100701.74;214470;1277;141226;-63
2022/09/04 18:27:45;;;;;;;5.20;3.50;;;;;;;15.24;60.89;100717.18;213998;1278;140555;-64
2022/09/04 18:33:09;;;;;;;5.40;4.20;;;;;;;14.97;61.38;100715.89;213986;1277;142005;-64
2022/09/04 18:38:40;;;;;;;4.70;4.30;;;;;;;14.77;61.93;100715.70;215375;1277;163535;-64
2022/09/04 18:44:14;;;;;;;5.90;4.30;;;;;;;14.73;62.27;100719.95;214989;1277;142062;-63
2022/09/04 18:49:38;;;;;;;5.70;4.90;;;;;;;14.68;62.43;100723.23;213893;1277;141363;-64
2022/09/04 18:55:13;;;;;;;6.00;5.00;;;;;;;14.57;62.46;100727.64;212888;1278;140927;-65
2022/09/04 19:00:38;;;;;;;6.20;4.70;;;;;;;14.36;62.83;100728.30;213732;1277;141658;-66
2022/09/04 19:05:45;;;;;;;4.50;3.60;;;;;;;14.04;63.17;100731.97;213836;1277;140890;-66
2022/09/04 19:11:02;;;;;;;5.50;4.80;;;;;;;13.81;63.61;100731.37;214244;1277;141005;-65
2022/09/04 19:19:41;;;;;;;11.70;5.80;;;;;;;13.69;63.98;100740.04;213483;1315;658582;-67
2022/09/04 19:24:56;;;;;;;7.70;4.80;;;;;;;13.53;64.36;100749.91;211210;1288;139871;-65
2022/09/04 19:30:06;;;;;;;8.30;5.80;;;;;;;13.50;64.74;100761.24;210741;1286;1693814;-66
2022/09/04 19:35:39;;;;;;;8.30;6.00;;;;;;;13.42;65.05;100768.02;212143;1286;139608;-67
2022/09/04 19:40:58;;;;;;;7.40;5.00;;;;;;;13.14;65.12;100770.73;211846;1285;139083;-67
2022/09/04 19:46:57;;;;;;;6.50;5.80;;;;;;;12.94;65.67;100769.52;211486;1286;140357;-65
2022/09/04 19:52:15;;;;;;;10.20;6.20;;;;;;;12.79;65.98;100768.39;210430;1288;139950;-65
2022/09/04 19:57:46;;;;;;;12.70;5.50;;;;;;;12.69;66.67;100781.27;212016;1286;140643;-64
2022/09/04 20:02:53;;;;;;;8.70;6.40;;;;;;;12.71;66.88;100782.23;211081;1285;140697;-66
2022/09/04 20:08:09;;;;;;;9.50;6.20;;;;;;;12.71;67.18;100785.36;212154;1286;140777;-66
2022/09/04 20:13:39;;;;;;;8.40;5.60;;;;;;;12.62;67.16;100782.29;212859;1286;139864;-66
2022/09/04 20:19:07;;;;;;;6.90;5.90;;;;;;;12.42;67.34;100784.06;212057;1286;140391;-66
2022/09/04 20:24:28;;;;;;;14.40;6.30;;;;;;;12.28;67.46;100790.98;213252;1286;139015;-66
2022/09/04 20:29:51;;;;;;;9.00;5.70;;;;;;;12.18;67.66;100792.95;214950;1279;141357;-66
2022/09/04 20:35:12;;;;;;;10.10;6.00;;;;;;;12.20;68.16;100790.71;214942;1280;140954;-67
2022/09/04 20:40:45;;;;;;;9.40;6.60;;;;;;;12.30;68.10;100792.44;214215;1280;141148;-67
2022/09/04 20:46:00;;;;;;;10.10;6.00;;;;;;;12.36;67.99;100790.38;213936;1279;139377;-66
2022/09/04 20:51:27;;;;;;;11.10;5.80;;;;;;;12.36;68.22;100794.40;214663;1280;139578;-66
2022/09/04 20:57:21;;;;;;;10.20;6.20;;;;;;;12.35;68.13;100800.26;213816;1279;138990;-67
2022/09/04 21:03:03;;;;;;;10.50;6.80;;;;;;;12.42;68.29;100803.57;214611;1277;139553;-66
2022/09/04 21:08:55;;;;;;;7.30;5.80;;;;;;;12.49;67.97;100811.23;213658;1277;141146;-65
2022/09/04 21:14:10;;;;;;;10.20;6.50;;;;;;;12.52;68.15;100814.73;213156;1277;140176;-65
2022/09/04 21:19:41;;;;;;;8.90;5.70;;;;;;;12.49;68.01;100820.55;213549;1277;140256;-67
2022/09/04 21:25:21;;;;;;;12.20;5.60;;;;;;;12.44;67.88;100823.42;213198;1277;139730;-67
2022/09/04 21:30:49;;;;;;;7.60;4.50;;;;;;;12.41;67.72;100830.20;213601;1278;142283;-66
2022/09/04 21:35:54;;;;;;;;;;;;;;;12.41;67.92;100830.33;212985;1277;140100;-66
2022/09/04 21:41:08;;;;;;;4.90;4.40;;;;;;;12.35;68.01;100829.88;213651;1277;127266;-65
2022/09/04 21:46:32;;;;;;;5.70;4.10;;;;;;;12.30;67.91;100838.34;212994;1277;140332;-64
2022/09/04 21:52:12;;;;;;;6.50;4.60;;;;;;;12.24;67.84;100837.17;213087;1277;139954;-66
2022/09/04 21:57:45;;;;;;;6.40;4.10;;;;;;;12.17;67.94;100843.54;212831;1277;141781;-65
2022/09/04 22:03:28;;;;;;;6.30;4.10;;;;;;;12.13;67.93;100851.00;212887;1276;140176;-66
2022/09/04 22:08:34;;;;;;;5.10;4.30;;;;;;;12.02;67.90;100861.27;214697;1279;141148;-67
2022/09/04 22:14:38;;;;;;;7.70;4.20;;;;;;;11.84;67.88;100861.25;213906;1277;140187;-66
2022/09/04 22:20:10;;;;;;;4.20;3.80;;;;;;;11.74;68.23;100863.33;213773;1277;140506;-66
2022/09/04 22:25:39;;;;;;;7.20;4.00;;;;;;;11.74;68.18;100861.14;215468;1277;140461;-65
2022/09/04 22:31:08;;;;;;;5.80;4.20;;;;;;;11.74;68.31;100864.47;214923;1277;140624;-67
2022/09/04 22:36:44;;;;;;;6.50;3.60;;;;;;;11.73;68.41;100869.61;215518;1277;139545;-67
2022/09/04 22:42:04;;;;;;;4.00;3.60;;;;;;;11.68;68.16;100869.30;214057;1277;140025;-66
2022/09/04 22:47:25;;;;;;;;;;;;;;;11.63;68.29;100871.02;213346;1278;141111;-65
2022/09/04 22:53:02;;;;;;;7.70;4.10;;;;;;;11.59;68.30;100865.69;216151;1275;127801;-65
2022/09/04 22:58:15;;;;;;;5.30;3.00;;;;;;;11.59;68.36;100869.66;214258;1277;139384;-67
2022/09/04 23:03:47;;;;;;;5.10;3.20;;;;;;;11.58;68.46;100873.13;214680;1277;140353;-67
2022/09/04 23:09:26;;;;;;;3.70;3.40;;;;;;;11.51;68.30;100875.73;212981;1277;140598;-66
2022/09/04 23:15:05;;;;;;;5.60;3.80;;;;;;;11.41;68.45;100878.20;214208;1278;139642;-65
2022/09/04 23:20:29;;;;;;;10.00;4.40;;;;;;;11.35;68.55;100881.64;213464;1277;139703;-65
2022/09/04 23:26:10;;;;;;;3.70;3.20;;;;;;;11.30;68.86;100882.81;212751;1276;139894;-65
2022/09/04 23:32:08;;;;;;;13.60;4.00;;;;;;;11.28;69.15;100881.23;213684;1277;140084;-65
2022/09/04 23:37:52;;;;;;;6.20;4.10;;;;;;;11.23;69.01;100881.12;213318;1276;140256;-67
2022/09/04 23:43:39;;;;;;;6.30;4.00;;;;;;;11.20;69.17;100886.91;212962;1277;140458;-65
2022/09/04 23:49:13;;;;;;;3.90;3.40;;;;;;;11.19;69.06;100886.96;213362;1279;139597;-65
2022/09/04 23:55:06;;;;;;;3.80;3.20;;;;;;;11.16;69.06;100886.67;213942;1277;139931;-65
